createdAt,value
2019-05-01T00:02:21.724Z,9.20
2019-05-01T00:07:34.719Z,9.00
2019-05-01T00:12:30.377Z,8.90
2019-05-01T00:17:27.779Z,8.70
2019-05-01T00:22:23.586Z,8.60
2019-05-01T00:27:19.149Z,8.50
2019-05-01T00:32:14.793Z,8.40
2019-05-01T00:37:10.407Z,8.30
2019-05-01T00:42:06.041Z,8.30
2019-05-01T00:47:01.698Z,8.20
2019-05-01T00:51:57.381Z,8.20
2019-05-01T00:57:11.050Z,8.30
2019-05-01T01:02:29.608Z,8.90
2019-05-01T01:07:25.592Z,9.30
2019-05-01T01:12:21.196Z,9.90
2019-05-01T01:17:16.879Z,10.30
2019-05-01T01:22:12.525Z,10.40
2019-05-01T01:27:08.351Z,10.40
2019-05-01T01:32:04.394Z,10.50
2019-05-01T01:36:59.964Z,10.50
2019-05-01T01:41:56.283Z,10.30
2019-05-01T01:46:52.620Z,10.00
2019-05-01T01:51:48.247Z,9.70
2019-05-01T01:56:43.880Z,9.50
2019-05-01T02:01:51.408Z,9.20
2019-05-01T02:06:47.696Z,9.00
2019-05-01T02:11:43.422Z,8.80
2019-05-01T02:16:39.060Z,8.70
2019-05-01T02:21:34.775Z,8.50
2019-05-01T02:26:33.461Z,8.30
2019-05-01T02:31:34.844Z,8.20
2019-05-01T02:36:32.085Z,7.90
2019-05-01T02:41:34.329Z,7.80
2019-05-01T02:46:33.921Z,7.60
2019-05-01T02:51:30.473Z,7.60
2019-05-01T02:56:34.736Z,7.40
2019-05-01T03:01:45.435Z,7.30
2019-05-01T03:06:31.241Z,7.20
2019-05-01T03:11:29.486Z,7.10
2019-05-01T03:16:26.167Z,7.00
2019-05-01T03:21:30.638Z,6.80
2019-05-01T03:26:26.753Z,6.70
2019-05-01T03:31:22.500Z,6.60
2019-05-01T03:36:19.291Z,6.50
2019-05-01T03:41:15.261Z,6.40
2019-05-01T03:46:11.761Z,6.40
2019-05-01T03:51:08.184Z,6.30
2019-05-01T03:56:03.941Z,6.20
2019-05-01T04:01:19.287Z,6.10
2019-05-01T04:06:14.965Z,6.00
2019-05-01T04:11:11.496Z,6.00
2019-05-01T04:16:07.430Z,6.10
2019-05-01T04:21:03.677Z,6.10
2019-05-01T04:25:59.332Z,6.10
2019-05-01T04:31:00.319Z,6.10
2019-05-01T04:36:04.255Z,6.20
2019-05-01T04:41:00.495Z,6.40
2019-05-01T04:45:57.017Z,6.50
2019-05-01T04:50:53.262Z,6.60
2019-05-01T04:55:49.023Z,6.70
2019-05-01T05:00:44.874Z,6.80
2019-05-01T05:05:40.600Z,6.90
2019-05-01T05:10:36.362Z,7.10
2019-05-01T05:16:03.462Z,7.40
2019-05-01T05:20:59.961Z,7.60
2019-05-01T05:25:55.952Z,7.90
2019-05-01T05:30:54.217Z,8.30
2019-05-01T05:35:52.194Z,8.50
2019-05-01T05:40:47.961Z,8.80
2019-05-01T05:45:44.046Z,9.10
2019-05-01T05:50:54.977Z,9.50
2019-05-01T05:55:54.631Z,9.90
2019-05-01T06:01:04.777Z,10.20
2019-05-01T06:06:23.045Z,10.60
2019-05-01T06:11:43.346Z,11.10
2019-05-01T06:16:52.159Z,12.00
2019-05-01T06:22:05.076Z,12.60
2019-05-01T06:27:01.973Z,13.10
2019-05-01T06:31:58.861Z,13.30
2019-05-01T06:36:55.324Z,13.60
2019-05-01T06:41:51.672Z,13.80
2019-05-01T06:46:58.260Z,13.80
2019-05-01T06:51:56.201Z,13.90
2019-05-01T06:56:52.223Z,14.00
2019-05-01T07:01:53.305Z,14.10
2019-05-01T07:06:46.290Z,14.20
2019-05-01T07:11:47.665Z,14.30
2019-05-01T07:16:41.329Z,14.50
2019-05-01T07:21:37.454Z,14.60
2019-05-01T07:26:33.431Z,14.70
2019-05-01T07:31:31.037Z,14.70
2019-05-01T07:36:26.445Z,14.80
2019-05-01T07:41:22.206Z,14.90
2019-05-01T07:46:23.962Z,15.00
2019-05-01T07:51:20.078Z,15.10
2019-05-01T07:56:17.275Z,15.20
2019-05-01T08:01:22.225Z,15.40
2019-05-01T08:06:21.499Z,15.60
2019-05-01T08:11:15.368Z,15.50
2019-05-01T08:16:11.068Z,15.40
2019-05-01T08:21:37.635Z,15.50
2019-05-01T08:26:33.331Z,15.70
2019-05-01T08:31:38.606Z,15.90
2019-05-01T08:36:34.424Z,16.00
2019-05-01T08:41:31.824Z,16.20
2019-05-01T08:46:55.734Z,16.30
2019-05-01T08:51:51.559Z,16.30
2019-05-01T08:56:47.240Z,16.50
2019-05-01T09:01:45.777Z,16.70
2019-05-01T09:06:43.801Z,16.90
2019-05-01T09:11:37.656Z,17.10
2019-05-01T09:16:33.356Z,17.10
2019-05-01T09:21:28.996Z,17.10
2019-05-01T09:26:50.131Z,17.40
2019-05-01T09:31:43.542Z,17.40
2019-05-01T09:36:39.157Z,17.80
2019-05-01T09:41:38.405Z,18.00
2019-05-01T09:46:33.244Z,18.10
2019-05-01T09:52:03.029Z,18.10
2019-05-01T09:56:58.717Z,18.30
2019-05-01T10:01:54.412Z,18.30
2019-05-01T10:06:52.249Z,18.30
2019-05-01T10:11:47.352Z,18.60
2019-05-01T10:16:42.989Z,18.80
2019-05-01T10:21:38.740Z,19.10
2019-05-01T10:26:38.280Z,19.20
2019-05-01T10:31:51.493Z,19.20
2019-05-01T10:36:49.893Z,19.20
2019-05-01T10:41:47.938Z,19.10
2019-05-01T10:46:43.562Z,19.00
2019-05-01T10:51:39.250Z,19.70
2019-05-01T10:56:34.997Z,20.00
2019-05-01T11:01:46.257Z,20.20
2019-05-01T11:06:41.960Z,20.10
2019-05-01T11:11:37.865Z,20.30
2019-05-01T11:16:33.509Z,21.10
2019-05-01T11:21:29.195Z,21.80
2019-05-01T11:26:24.872Z,21.10
2019-05-01T11:31:24.909Z,21.30
2019-05-01T11:36:42.518Z,22.10
2019-05-01T11:41:44.694Z,22.70
2019-05-01T11:46:40.352Z,23.20
2019-05-01T11:51:35.997Z,23.00
2019-05-01T11:56:31.677Z,22.70
2019-05-01T12:01:27.308Z,22.90
2019-05-01T12:06:23.435Z,23.10
2019-05-01T12:11:21.743Z,22.80
2019-05-01T12:16:35.110Z,23.20
2019-05-01T12:21:30.774Z,22.50
2019-05-01T12:26:26.461Z,22.90
2019-05-01T12:31:22.101Z,23.40
2019-05-01T12:36:17.915Z,23.00
2019-05-01T12:41:23.846Z,23.40
2019-05-01T12:46:38.417Z,23.50
2019-05-01T12:51:34.507Z,23.00
2019-05-01T12:56:37.253Z,22.90
2019-05-01T13:01:32.837Z,23.40
2019-05-01T13:06:28.500Z,23.80
2019-05-01T13:11:24.146Z,23.40
2019-05-01T13:16:19.862Z,23.20
2019-05-01T13:21:15.496Z,22.70
2019-05-01T13:26:23.093Z,23.00
2019-05-01T13:31:36.710Z,23.60
2019-05-01T13:36:33.517Z,24.00
2019-05-01T13:41:29.211Z,23.60
2019-05-01T13:46:24.893Z,23.20
2019-05-01T13:51:20.549Z,22.50
2019-05-01T13:56:16.225Z,21.50
2019-05-01T14:01:12.224Z,21.50
2019-05-01T14:06:08.960Z,21.20
2019-05-01T14:11:05.349Z,21.50
2019-05-01T14:16:02.034Z,22.00
2019-05-01T14:21:23.414Z,21.90
2019-05-01T14:26:19.180Z,22.50
2019-05-01T14:31:14.902Z,21.50
2019-05-01T14:36:10.606Z,22.00
2019-05-01T14:41:06.418Z,23.10
2019-05-01T14:46:02.119Z,23.90
2019-05-01T14:50:57.885Z,23.60
2019-05-01T14:55:53.559Z,23.80
2019-05-01T15:00:50.311Z,24.10
2019-05-01T15:05:46.098Z,24.00
2019-05-01T15:10:42.194Z,23.80
2019-05-01T15:15:56.678Z,24.00
2019-05-01T15:20:52.535Z,24.90
2019-05-01T15:25:48.327Z,25.20
2019-05-01T15:30:44.076Z,24.80
2019-05-01T15:35:39.808Z,24.40
2019-05-01T15:40:41.350Z,24.30
2019-05-01T15:45:37.102Z,24.20
2019-05-01T15:50:34.066Z,24.20
2019-05-01T15:55:29.866Z,23.60
2019-05-01T16:00:25.840Z,23.90
2019-05-01T16:05:21.818Z,24.10
2019-05-01T16:10:19.853Z,23.30
2019-05-01T16:15:21.243Z,22.70
2019-05-01T16:20:17.177Z,22.20
2019-05-01T16:25:14.712Z,21.90
2019-05-01T16:30:10.786Z,21.80
2019-05-01T16:35:07.280Z,21.60
2019-05-01T16:40:13.185Z,21.30
2019-05-01T16:45:09.932Z,21.70
2019-05-01T16:50:07.531Z,21.50
2019-05-01T16:55:03.281Z,21.20
2019-05-01T17:00:00.558Z,20.90
2019-05-01T17:05:25.594Z,21.40
2019-05-01T17:10:29.274Z,25.70
2019-05-01T17:15:35.265Z,29.00
2019-05-01T17:20:31.561Z,26.10
2019-05-01T17:25:31.726Z,24.50
2019-05-01T17:30:46.087Z,23.30
2019-05-01T17:35:43.224Z,22.00
2019-05-01T17:40:41.087Z,21.00
2019-05-01T17:45:37.325Z,20.30
2019-05-01T17:50:34.589Z,19.80
2019-05-01T17:55:30.913Z,19.50
2019-05-01T18:00:51.526Z,19.10
2019-05-01T18:06:06.673Z,18.80
2019-05-01T18:11:02.537Z,18.40
2019-05-01T18:15:58.772Z,18.10
2019-05-01T18:20:56.366Z,17.70
2019-05-01T18:25:56.198Z,17.50
2019-05-01T18:30:56.602Z,17.30
2019-05-01T18:35:50.538Z,17.10
2019-05-01T18:40:53.876Z,16.90
2019-05-01T18:45:55.685Z,16.80
2019-05-01T18:50:54.932Z,16.70
2019-05-01T18:55:49.909Z,16.40
2019-05-01T19:00:45.840Z,16.00
2019-05-01T19:05:43.131Z,15.80
2019-05-01T19:10:39.316Z,15.70
2019-05-01T19:15:35.284Z,15.50
2019-05-01T19:20:31.687Z,15.30
2019-05-01T19:25:27.611Z,15.10
2019-05-01T19:30:23.963Z,14.90
2019-05-01T19:35:23.605Z,14.70
2019-05-01T19:40:18.058Z,14.60
2019-05-01T19:45:14.377Z,14.40
2019-05-01T19:50:14.101Z,14.20
2019-05-01T19:55:10.369Z,14.10
2019-05-01T20:00:07.725Z,14.00
2019-05-01T20:05:06.373Z,14.00
2019-05-01T20:10:02.428Z,13.90
2019-05-01T20:14:58.212Z,13.80
2019-05-01T20:19:54.277Z,13.50
2019-05-01T20:24:49.990Z,13.20
2019-05-01T20:29:45.805Z,13.10
2019-05-01T20:34:41.664Z,13.00
2019-05-01T20:39:37.355Z,13.00
2019-05-01T20:44:33.144Z,13.00
2019-05-01T20:49:29.014Z,13.00
2019-05-01T20:54:24.847Z,13.00
2019-05-01T20:59:20.592Z,12.80
2019-05-01T21:04:35.157Z,12.80
2019-05-01T21:09:46.795Z,12.70
2019-05-01T21:14:31.994Z,12.80
2019-05-01T21:19:30.240Z,12.90
2019-05-01T21:24:24.948Z,12.80
2019-05-01T21:29:20.595Z,12.80
2019-05-01T21:34:16.299Z,12.60
2019-05-01T21:39:12.558Z,12.50
2019-05-01T21:44:08.448Z,12.30
2019-05-01T21:49:04.467Z,12.40
2019-05-01T21:54:00.129Z,12.40
2019-05-01T21:58:59.464Z,12.50
2019-05-01T22:03:57.108Z,12.40
2019-05-01T22:08:50.517Z,12.40
2019-05-01T22:13:46.261Z,12.40
2019-05-01T22:18:50.488Z,12.30
2019-05-01T22:24:17.115Z,12.30
2019-05-01T22:29:14.417Z,12.30
2019-05-01T22:34:29.313Z,12.20
2019-05-01T22:39:28.760Z,12.00
2019-05-01T22:44:23.840Z,11.90
2019-05-01T22:49:19.485Z,11.90
2019-05-01T22:54:15.112Z,11.80
2019-05-01T22:59:12.154Z,11.80
2019-05-01T23:04:12.161Z,11.70
2019-05-01T23:09:08.865Z,11.60
2019-05-01T23:14:04.815Z,11.50
2019-05-01T23:19:00.512Z,11.40
2019-05-01T23:23:56.871Z,11.20
2019-05-01T23:28:53.529Z,11.20
2019-05-01T23:33:50.626Z,11.20
2019-05-01T23:38:46.423Z,11.10
2019-05-01T23:43:42.065Z,11.10
2019-05-01T23:48:37.700Z,11.00
2019-05-01T23:53:33.335Z,10.90
2019-05-01T23:58:30.473Z,11.00
